FSMM1S LEMD-LEAS
Flight info
| Callsign | FSMM1S |
|---|---|
| Flight time | 0h 39m |
| Altitude | 20000 |
| Route | ZMR7L/36L MD901 MD912 DISKO ZMR VETAN OMESI ROVAK GOTOX XONDA DORAR R172N R137N R116N VES14 AVS13 AVS57 AVS39 LEAS29 |
| Aircraft | A320/M-V/N |
Departure
| Time | 2026-05-03 20:15 |
|---|---|
| Airport | Adolfo Suárez Madrid–Barajas Airport (LEMD) |
Arrival
| Time | 2026-05-03 20:54 |
|---|---|
| Airport | Asturias Airport (LEAS) |
| Time | Latitude | Longitude | Altitude | Speed | Heading |
|---|---|---|---|---|---|
| 2026-05-03 20:15 | 40.51273 | -3.57468 | 2096 ft | 193 kts | 358° |
| 2026-05-03 20:15 | 40.52678 | -3.57447 | 2717 ft | 208 kts | 358° |
| 2026-05-03 20:15 | 40.54152 | -3.57469 | 3419 ft | 216 kts | 356° |
| 2026-05-03 20:15 | 40.55624 | -3.57425 | 4393 ft | 206 kts | 7° |
| 2026-05-03 20:16 | 40.57011 | -3.56958 | 4812 ft | 207 kts | 13° |
| 2026-05-03 20:16 | 40.58424 | -3.56399 | 4815 ft | 217 kts | 15° |
| 2026-05-03 20:16 | 40.59899 | -3.55793 | 4893 ft | 228 kts | 15° |
| 2026-05-03 20:16 | 40.61478 | -3.55148 | 5035 ft | 247 kts | 15° |
| 2026-05-03 20:17 | 40.63182 | -3.54472 | 5181 ft | 264 kts | 12° |
| 2026-05-03 20:17 | 40.65036 | -3.54124 | 5440 ft | 273 kts | 1° |
| 2026-05-03 20:17 | 40.66941 | -3.53974 | 5931 ft | 275 kts | 1° |
| 2026-05-03 20:17 | 40.68876 | -3.53805 | 6664 ft | 281 kts | 1° |
| 2026-05-03 20:18 | 40.70832 | -3.53629 | 7829 ft | 285 kts | 1° |
| 2026-05-03 20:18 | 40.72841 | -3.53453 | 8859 ft | 293 kts | 359° |
| 2026-05-03 20:18 | 40.74806 | -3.53820 | 9874 ft | 294 kts | 335° |
| 2026-05-03 20:18 | 40.76547 | -3.55250 | 10637 ft | 303 kts | 312° |
| 2026-05-03 20:19 | 40.77811 | -3.57553 | 11089 ft | 321 kts | 293° |
| 2026-05-03 20:19 | 40.78744 | -3.60310 | 11632 ft | 338 kts | 288° |
| 2026-05-03 20:19 | 40.79653 | -3.63238 | 12379 ft | 349 kts | 289° |
| 2026-05-03 20:19 | 40.80631 | -3.66186 | 13373 ft | 353 kts | 290° |
| 2026-05-03 20:20 | 40.81678 | -3.69148 | 14265 ft | 359 kts | 291° |
| 2026-05-03 20:20 | 40.82775 | -3.72129 | 15143 ft | 363 kts | 292° |
| 2026-05-03 20:20 | 40.83899 | -3.75127 | 16008 ft | 367 kts | 292° |
| 2026-05-03 20:20 | 40.85042 | -3.78161 | 16846 ft | 371 kts | 292° |
| 2026-05-03 20:21 | 40.86185 | -3.81188 | 17640 ft | 376 kts | 292° |
| 2026-05-03 20:21 | 40.87362 | -3.84311 | 18376 ft | 383 kts | 292° |
| 2026-05-03 20:21 | 40.88549 | -3.87473 | 19110 ft | 385 kts | 291° |
| 2026-05-03 20:21 | 40.89741 | -3.90650 | 19704 ft | 388 kts | 291° |
| 2026-05-03 20:22 | 40.90939 | -3.93854 | 19929 ft | 389 kts | 291° |
| 2026-05-03 20:22 | 40.92139 | -3.97063 | 20009 ft | 389 kts | 291° |
| 2026-05-03 20:22 | 40.93336 | -4.00272 | 20015 ft | 389 kts | 291° |
| 2026-05-03 20:22 | 40.94532 | -4.03481 | 20014 ft | 389 kts | 291° |
| 2026-05-03 20:23 | 40.95323 | -4.05606 | 20010 ft | 389 kts | 291° |
| 2026-05-03 20:23 | 40.96516 | -4.08815 | 20012 ft | 389 kts | 291° |
| 2026-05-03 20:23 | 40.97709 | -4.12029 | 20017 ft | 389 kts | 291° |
| 2026-05-03 20:23 | 40.99285 | -4.16281 | 20018 ft | 389 kts | 291° |
| 2026-05-03 20:24 | 41.00476 | -4.19497 | 20018 ft | 389 kts | 291° |
| 2026-05-03 20:24 | 41.01666 | -4.22713 | 20018 ft | 389 kts | 291° |
| 2026-05-03 20:24 | 41.02455 | -4.24842 | 20018 ft | 389 kts | 291° |
| 2026-05-03 20:24 | 41.03665 | -4.28096 | 20017 ft | 389 kts | 291° |
| 2026-05-03 20:25 | 41.04844 | -4.31264 | 20015 ft | 389 kts | 291° |
| 2026-05-03 20:25 | 41.06037 | -4.34472 | 20019 ft | 388 kts | 291° |
| 2026-05-03 20:25 | 41.07229 | -4.37680 | 20017 ft | 388 kts | 291° |
| 2026-05-03 20:25 | 41.08417 | -4.40885 | 20016 ft | 388 kts | 291° |
| 2026-05-03 20:26 | 41.09605 | -4.44094 | 20015 ft | 388 kts | 291° |
| 2026-05-03 20:26 | 41.10941 | -4.47216 | 20013 ft | 394 kts | 302° |
| 2026-05-03 20:26 | 41.12885 | -4.49818 | 20016 ft | 404 kts | 318° |
| 2026-05-03 20:26 | 41.15300 | -4.51774 | 20014 ft | 409 kts | 327° |
| 2026-05-03 20:27 | 41.17825 | -4.53530 | 20014 ft | 410 kts | 328° |
| 2026-05-03 20:27 | 41.20361 | -4.55253 | 20016 ft | 410 kts | 328° |
| 2026-05-03 20:27 | 41.22859 | -4.56966 | 20015 ft | 409 kts | 328° |
| 2026-05-03 20:27 | 41.25343 | -4.58697 | 20017 ft | 408 kts | 328° |
| 2026-05-03 20:28 | 41.27853 | -4.60466 | 20017 ft | 408 kts | 328° |
| 2026-05-03 20:28 | 41.30359 | -4.62241 | 20015 ft | 409 kts | 328° |
| 2026-05-03 20:28 | 41.32869 | -4.64024 | 20016 ft | 408 kts | 328° |
| 2026-05-03 20:28 | 41.35373 | -4.65805 | 20013 ft | 408 kts | 328° |
| 2026-05-03 20:29 | 41.37877 | -4.67588 | 20016 ft | 408 kts | 328° |
| 2026-05-03 20:29 | 41.40378 | -4.69371 | 20013 ft | 408 kts | 328° |
| 2026-05-03 20:29 | 41.42887 | -4.71161 | 20013 ft | 408 kts | 328° |
| 2026-05-03 20:29 | 41.45388 | -4.72948 | 20014 ft | 408 kts | 328° |
| 2026-05-03 20:30 | 41.47892 | -4.74738 | 20014 ft | 409 kts | 328° |
| 2026-05-03 20:30 | 41.50396 | -4.76529 | 20002 ft | 409 kts | 328° |
| 2026-05-03 20:30 | 41.52870 | -4.78300 | 20003 ft | 409 kts | 328° |
| 2026-05-03 20:30 | 41.55375 | -4.80095 | 20004 ft | 408 kts | 328° |
| 2026-05-03 20:31 | 41.57878 | -4.81890 | 20003 ft | 409 kts | 328° |
| 2026-05-03 20:31 | 41.60379 | -4.83686 | 20003 ft | 408 kts | 328° |
| 2026-05-03 20:31 | 41.62880 | -4.85482 | 19999 ft | 408 kts | 328° |
| 2026-05-03 20:31 | 41.65383 | -4.87283 | 20000 ft | 409 kts | 328° |
| 2026-05-03 20:32 | 41.67884 | -4.89083 | 20007 ft | 409 kts | 328° |
| 2026-05-03 20:32 | 41.70393 | -4.90892 | 19998 ft | 410 kts | 328° |
| 2026-05-03 20:32 | 41.72903 | -4.92701 | 20006 ft | 409 kts | 328° |
| 2026-05-03 20:32 | 41.75411 | -4.94511 | 20000 ft | 409 kts | 328° |
| 2026-05-03 20:33 | 41.77883 | -4.96296 | 20001 ft | 409 kts | 328° |
| 2026-05-03 20:33 | 41.80389 | -4.98107 | 20003 ft | 409 kts | 328° |
| 2026-05-03 20:33 | 41.82894 | -4.99920 | 20004 ft | 409 kts | 327° |
| 2026-05-03 20:33 | 41.85397 | -5.01733 | 20002 ft | 409 kts | 327° |
| 2026-05-03 20:34 | 41.87903 | -5.03550 | 20010 ft | 409 kts | 327° |
| 2026-05-03 20:34 | 41.90405 | -5.05366 | 20006 ft | 409 kts | 327° |
| 2026-05-03 20:34 | 41.92907 | -5.07183 | 20002 ft | 409 kts | 327° |
| 2026-05-03 20:34 | 41.95395 | -5.08991 | 20002 ft | 409 kts | 327° |
| 2026-05-03 20:35 | 41.97899 | -5.10813 | 20004 ft | 409 kts | 327° |
| 2026-05-03 20:35 | 42.00370 | -5.12612 | 20002 ft | 409 kts | 327° |
| 2026-05-03 20:35 | 42.02873 | -5.14437 | 20006 ft | 409 kts | 327° |
| 2026-05-03 20:35 | 42.05375 | -5.16262 | 20005 ft | 409 kts | 327° |
| 2026-05-03 20:36 | 42.07876 | -5.18088 | 20004 ft | 409 kts | 327° |
| 2026-05-03 20:36 | 42.10386 | -5.19922 | 20003 ft | 411 kts | 327° |
| 2026-05-03 20:36 | 42.12785 | -5.21678 | 20000 ft | 411 kts | 327° |
| 2026-05-03 20:36 | 42.15290 | -5.23511 | 20001 ft | 411 kts | 327° |
| 2026-05-03 20:37 | 42.17810 | -5.25358 | 20005 ft | 411 kts | 327° |
| 2026-05-03 20:37 | 42.20321 | -5.27199 | 20003 ft | 411 kts | 327° |
| 2026-05-03 20:37 | 42.22828 | -5.29040 | 20004 ft | 411 kts | 327° |
| 2026-05-03 20:37 | 42.25336 | -5.30883 | 20004 ft | 411 kts | 327° |
| 2026-05-03 20:38 | 42.27813 | -5.32704 | 20002 ft | 411 kts | 327° |
| 2026-05-03 20:38 | 42.30325 | -5.34552 | 20008 ft | 412 kts | 327° |
| 2026-05-03 20:38 | 42.32840 | -5.36405 | 20004 ft | 411 kts | 327° |
| 2026-05-03 20:38 | 42.35353 | -5.38259 | 20002 ft | 412 kts | 327° |
| 2026-05-03 20:39 | 42.37864 | -5.40113 | 20000 ft | 411 kts | 327° |
| 2026-05-03 20:39 | 42.40374 | -5.41967 | 20000 ft | 411 kts | 327° |
| 2026-05-03 20:39 | 42.42888 | -5.43827 | 20000 ft | 411 kts | 327° |
| 2026-05-03 20:39 | 42.45396 | -5.45683 | 20004 ft | 411 kts | 327° |
| 2026-05-03 20:40 | 42.47908 | -5.47544 | 20003 ft | 411 kts | 327° |
| 2026-05-03 20:40 | 42.50420 | -5.49407 | 20007 ft | 412 kts | 327° |
| 2026-05-03 20:40 | 42.52934 | -5.51273 | 20006 ft | 412 kts | 327° |
| 2026-05-03 20:40 | 42.55444 | -5.53137 | 20007 ft | 412 kts | 327° |
| 2026-05-03 20:41 | 42.57958 | -5.55007 | 20010 ft | 412 kts | 327° |
| 2026-05-03 20:41 | 42.60472 | -5.56879 | 20009 ft | 412 kts | 327° |
| 2026-05-03 20:41 | 42.62984 | -5.58750 | 20009 ft | 412 kts | 327° |
| 2026-05-03 20:41 | 42.65462 | -5.60597 | 20018 ft | 412 kts | 327° |
| 2026-05-03 20:42 | 42.67972 | -5.62471 | 20018 ft | 412 kts | 327° |
| 2026-05-03 20:42 | 42.70484 | -5.64348 | 20003 ft | 412 kts | 327° |
| 2026-05-03 20:42 | 42.72996 | -5.66226 | 20006 ft | 412 kts | 327° |
| 2026-05-03 20:42 | 42.75509 | -5.68107 | 20008 ft | 412 kts | 327° |
| 2026-05-03 20:43 | 42.78020 | -5.69988 | 20011 ft | 412 kts | 327° |
| 2026-05-03 20:43 | 42.80531 | -5.71870 | 20028 ft | 412 kts | 326° |
| 2026-05-03 20:43 | 42.83042 | -5.73752 | 20018 ft | 412 kts | 326° |
| 2026-05-03 20:43 | 42.85552 | -5.75639 | 20022 ft | 412 kts | 326° |
| 2026-05-03 20:44 | 42.88021 | -5.77496 | 20047 ft | 411 kts | 326° |
| 2026-05-03 20:44 | 42.90532 | -5.79383 | 20044 ft | 413 kts | 326° |
| 2026-05-03 20:44 | 42.93040 | -5.81274 | 20047 ft | 412 kts | 326° |
| 2026-05-03 20:44 | 42.95548 | -5.83165 | 20048 ft | 412 kts | 326° |
| 2026-05-03 20:45 | 42.98054 | -5.85057 | 20051 ft | 411 kts | 326° |
| 2026-05-03 20:45 | 43.00565 | -5.86957 | 20054 ft | 412 kts | 326° |
| 2026-05-03 20:45 | 43.03073 | -5.88851 | 20050 ft | 412 kts | 327° |
| 2026-05-03 20:45 | 43.05698 | -5.90476 | 20058 ft | 417 kts | 335° |
| 2026-05-03 20:46 | 43.08495 | -5.91583 | 20066 ft | 422 kts | 344° |
| 2026-05-03 20:46 | 43.11402 | -5.92206 | 20055 ft | 423 kts | 348° |
| 2026-05-03 20:46 | 43.14323 | -5.92754 | 20075 ft | 424 kts | 348° |
| 2026-05-03 20:46 | 43.17245 | -5.93315 | 20071 ft | 424 kts | 348° |
| 2026-05-03 20:47 | 43.20117 | -5.93867 | 19969 ft | 421 kts | 348° |
| 2026-05-03 20:47 | 43.23009 | -5.94423 | 19533 ft | 418 kts | 348° |
| 2026-05-03 20:47 | 43.25886 | -5.94975 | 18829 ft | 417 kts | 348° |
| 2026-05-03 20:47 | 43.28733 | -5.95522 | 18300 ft | 410 kts | 349° |
| 2026-05-03 20:48 | 43.31560 | -5.95904 | 17590 ft | 409 kts | 359° |
| 2026-05-03 20:48 | 43.34356 | -5.95302 | 16926 ft | 407 kts | 16° |
| 2026-05-03 20:48 | 43.36888 | -5.93628 | 16288 ft | 403 kts | 34° |
| 2026-05-03 20:48 | 43.38924 | -5.91037 | 15660 ft | 398 kts | 53° |
| 2026-05-03 20:49 | 43.40278 | -5.87774 | 15027 ft | 390 kts | 71° |
| 2026-05-03 20:49 | 43.40823 | -5.84175 | 14395 ft | 382 kts | 88° |
| 2026-05-03 20:49 | 43.41022 | -5.80550 | 13765 ft | 380 kts | 82° |
| 2026-05-03 20:49 | 43.41841 | -5.77122 | 13113 ft | 378 kts | 63° |
| 2026-05-03 20:50 | 43.43374 | -5.74292 | 12491 ft | 374 kts | 44° |
| 2026-05-03 20:50 | 43.45413 | -5.72125 | 11870 ft | 369 kts | 30° |
| 2026-05-03 20:50 | 43.47683 | -5.70567 | 11262 ft | 363 kts | 16° |
| 2026-05-03 20:50 | 43.50150 | -5.70096 | 10644 ft | 356 kts | 355° |
| 2026-05-03 20:51 | 43.52519 | -5.70821 | 9891 ft | 345 kts | 334° |
| 2026-05-03 20:51 | 43.54333 | -5.72767 | 9263 ft | 319 kts | 295° |
| 2026-05-03 20:51 | 43.54884 | -5.75464 | 9387 ft | 279 kts | 269° |
| 2026-05-03 20:51 | 43.54418 | -5.77965 | 8894 ft | 270 kts | 240° |
| 2026-05-03 20:52 | 43.53214 | -5.79917 | 8339 ft | 267 kts | 229° |
| 2026-05-03 20:52 | 43.52334 | -5.82061 | 8046 ft | 253 kts | 261° |
| 2026-05-03 20:52 | 43.52211 | -5.84466 | 7297 ft | 261 kts | 278° |
| 2026-05-03 20:52 | 43.52527 | -5.86952 | 6538 ft | 269 kts | 283° |
| 2026-05-03 20:53 | 43.53030 | -5.89403 | 5765 ft | 256 kts | 287° |
| 2026-05-03 20:53 | 43.53550 | -5.91651 | 5032 ft | 239 kts | 288° |
| 2026-05-03 20:53 | 43.54101 | -5.93891 | 3848 ft | 258 kts | 289° |
| 2026-05-03 20:53 | 43.54707 | -5.96330 | 2474 ft | 278 kts | 289° |
| 2026-05-03 20:54 | 43.55323 | -5.98931 | 1247 ft | 288 kts | 287° |
| 2026-05-03 20:54 | 43.56201 | -6.02778 | 404 ft | 0 kts | 290° |
| 2026-05-03 20:55 | 43.56205 | -6.02798 | 418 ft | 5 kts | 289° |
| 2026-05-03 20:55 | 43.56215 | -6.02870 | 420 ft | 10 kts | 280° |
| 2026-05-03 20:55 | 43.56241 | -6.02979 | 420 ft | 15 kts | 289° |
| 2026-05-03 20:55 | 43.56266 | -6.03123 | 417 ft | 13 kts | 252° |
| 2026-05-03 20:56 | 43.56189 | -6.03188 | 419 ft | 15 kts | 199° |
| 2026-05-03 20:56 | 43.56074 | -6.03225 | 421 ft | 18 kts | 171° |
| 2026-05-03 20:56 | 43.55984 | -6.03266 | 419 ft | 4 kts | 191° |
| 2026-05-03 20:56 | 43.56022 | -6.03243 | 411 ft | 0 kts | 210° |